Time;durP1;ratioP1;P1;durP2;ratioP2;P2;SDS_P1;SDS_P2;PMS_P1;PMS_P2;Temp;Humidity;BMP_temperature;BMP_pressure;BME280_temperature;BME280_humidity;BME280_pressure;Samples;Min_cycle;Max_cycle;Signal;HPM_P1;HPM_P2
2021/11/14 00:01:41;;;;;;;20.57;16.30;;;8.30;99.90;;;;;;5039127;28;20436;-67
2021/11/14 00:04:08;;;;;;;21.83;17.40;;;8.30;99.90;;;;;;5039645;28;20429;-67
2021/11/14 00:06:35;;;;;;;22.57;17.27;;;8.20;99.90;;;;;;5034979;28;20584;-68
2021/11/14 00:09:01;;;;;;;20.13;18.00;;;8.20;99.90;;;;;;5040782;28;20597;-68
2021/11/14 00:11:26;;;;;;;19.67;16.10;;;8.30;99.90;;;;;;5041940;28;20452;-68
2021/11/14 00:13:53;;;;;;;20.23;17.90;;;8.40;99.90;;;;;;5043428;28;20170;-67
2021/11/14 00:16:20;;;;;;;22.47;18.47;;;8.50;99.90;;;;;;5040018;28;20170;-67
2021/11/14 00:18:46;;;;;;;20.13;17.90;;;8.50;99.90;;;;;;5043050;28;20462;-67
2021/11/14 00:21:14;;;;;;;22.90;18.77;;;8.60;99.90;;;;;;5044332;28;20432;-65
2021/11/14 00:23:40;;;;;;;19.87;17.57;;;8.60;99.90;;;;;;5045506;28;20177;-68
2021/11/14 00:26:06;;;;;;;21.97;19.67;;;8.70;99.90;;;;;;5044256;28;20953;-65
2021/11/14 00:28:32;;;;;;;22.40;19.43;;;8.70;99.90;;;;;;5049537;28;20682;-66
2021/11/14 00:30:58;;;;;;;18.57;16.60;;;8.70;99.90;;;;;;5042485;28;20471;-65
2021/11/14 00:33:24;;;;;;;20.77;18.60;;;8.70;99.90;;;;;;5049394;28;20177;-66
2021/11/14 00:35:52;;;;;;;21.57;18.87;;;8.70;99.90;;;;;;5029733;28;20170;-68
2021/11/14 00:38:19;;;;;;;26.03;20.33;;;8.50;99.90;;;;;;5046135;28;20449;-65
2021/11/14 00:40:45;;;;;;;24.47;21.73;;;8.50;99.90;;;;;;5046827;28;20514;-66
2021/11/14 00:43:11;;;;;;;27.10;23.17;;;8.40;99.90;;;;;;5039304;28;20424;-66
2021/11/14 00:45:38;;;;;;;26.57;22.47;;;8.30;99.90;;;;;;5033909;28;20436;-66
2021/11/14 00:48:04;;;;;;;28.33;23.60;;;8.20;99.90;;;;;;5047176;28;20482;-65
2021/11/14 00:50:31;;;;;;;30.93;24.87;;;8.20;99.90;;;;;;5034238;28;20452;-65
2021/11/14 00:52:59;;;;;;;27.27;24.33;;;8.20;99.90;;;;;;5041651;28;20432;-65
2021/11/14 00:55:25;;;;;;;26.43;23.47;;;8.10;99.90;;;;;;5038633;28;20909;-65
2021/11/14 00:57:50;;;;;;;26.47;23.03;;;8.10;99.90;;;;;;5048456;28;20498;-66
2021/11/14 01:00:20;;;;;;;28.87;23.93;;;8.10;99.90;;;;;;5049362;28;20432;-66
2021/11/14 01:02:47;;;;;;;30.43;24.67;;;8.20;99.90;;;;;;5048192;28;20212;-66
2021/11/14 01:05:14;;;;;;;27.60;24.00;;;8.20;99.90;;;;;;5048243;28;20489;-66
2021/11/14 01:07:40;;;;;;;27.10;22.07;;;8.20;99.90;;;;;;5049465;28;20462;-65
2021/11/14 01:10:09;;;;;;;27.60;22.13;;;8.20;99.90;;;;;;5045655;28;20437;-66
2021/11/14 01:12:35;;;;;;;26.83;23.70;;;8.20;99.90;;;;;;5042680;28;20439;-66
2021/11/14 01:15:01;;;;;;;24.20;21.60;;;8.30;99.90;;;;;;5040432;28;20563;-66
2021/11/14 01:17:27;;;;;;;26.43;23.60;;;8.20;99.90;;;;;;5045927;28;20450;-66
2021/11/14 01:19:52;;;;;;;25.87;22.10;;;8.30;99.90;;;;;;5045200;28;20433;-66
2021/11/14 01:22:18;;;;;;;28.07;22.70;;;8.40;99.90;;;;;;5048001;28;20189;-66
2021/11/14 01:24:44;;;;;;;27.47;22.20;;;8.40;99.90;;;;;;5039187;28;20174;-65
2021/11/14 01:27:10;;;;;;;27.27;21.80;;;8.40;99.90;;;;;;5038962;28;20796;-65
2021/11/14 01:29:36;;;;;;;29.13;24.20;;;8.20;99.90;;;;;;5048417;28;20527;-65
2021/11/14 01:32:02;;;;;;;31.23;24.70;;;8.10;99.90;;;;;;5031277;28;20640;-66
2021/11/14 01:34:27;;;;;;;29.13;24.17;;;8.00;99.90;;;;;;5020735;28;20452;-66
2021/11/14 01:36:53;;;;;;;32.53;27.70;;;7.90;99.90;;;;;;5026915;28;20503;-66
2021/11/14 01:39:18;;;;;;;32.23;27.03;;;7.90;99.90;;;;;;5022465;28;20249;-66
2021/11/14 01:41:44;;;;;;;31.10;25.73;;;7.90;99.90;;;;;;5042638;28;20182;-66
2021/11/14 01:44:10;;;;;;;29.77;26.50;;;7.90;99.90;;;;;;5050556;28;20212;-66
2021/11/14 01:46:36;;;;;;;30.30;25.00;;;7.90;99.90;;;;;;5025376;28;20174;-67
2021/11/14 01:49:03;;;;;;;29.60;26.43;;;7.80;99.90;;;;;;5037176;28;20508;-66
2021/11/14 01:51:29;;;;;;;32.87;27.27;;;7.90;99.90;;;;;;5044137;28;20448;-66
2021/11/14 01:53:54;;;;;;;29.93;26.40;;;7.90;99.90;;;;;;5036563;28;20437;-66
2021/11/14 01:56:21;;;;;;;30.63;25.50;;;7.80;99.90;;;;;;5033933;28;20257;-66
2021/11/14 01:58:48;;;;;;;32.97;25.60;;;7.90;99.90;;;;;;5039551;28;20663;-68
2021/11/14 02:01:28;;;;;;;31.50;26.07;;;7.90;99.90;;;;;;5040794;28;20517;-66
2021/11/14 02:03:56;;;;;;;31.07;26.17;;;7.90;99.90;;;;;;5024810;28;20426;-65
2021/11/14 02:06:24;;;;;;;28.67;25.57;;;8.00;99.90;;;;;;5037257;28;20432;-66
2021/11/14 02:08:50;;;;;;;29.70;26.00;;;8.00;99.90;;;;;;5027262;28;20457;-66
2021/11/14 02:11:16;;;;;;;27.67;24.77;;;8.10;99.90;;;;;;5037588;28;20988;-68
2021/11/14 02:13:45;;;;;;;35.37;26.90;;;8.00;99.90;;;;;;5046722;28;20910;-66
2021/11/14 02:16:11;;;;;;;28.50;25.13;;;8.00;99.90;;;;;;5042915;28;20511;-67
2021/11/14 02:18:37;;;;;;;32.30;24.50;;;8.00;99.90;;;;;;5044293;28;20539;-65
2021/11/14 02:21:03;;;;;;;29.03;24.80;;;8.10;99.90;;;;;;5043750;28;20519;-66
2021/11/14 02:23:29;;;;;;;30.13;25.67;;;8.10;99.90;;;;;;5039272;28;20190;-66
2021/11/14 02:25:54;;;;;;;29.90;24.47;;;8.10;99.90;;;;;;5036297;28;20523;-66
2021/11/14 02:28:22;;;;;;;29.10;25.97;;;8.10;99.90;;;;;;5037111;28;20535;-66
2021/11/14 02:30:50;;;;;;;29.20;26.10;;;8.10;99.90;;;;;;5039126;28;20194;-66
2021/11/14 02:33:16;;;;;;;26.70;23.20;;;8.10;99.90;;;;;;5040414;28;20435;-68
2021/11/14 02:35:45;;;;;;;30.23;24.70;;;8.10;99.90;;;;;;5033345;28;20436;-67
2021/11/14 02:38:11;;;;;;;30.00;25.97;;;8.10;99.90;;;;;;5039895;28;20455;-66
2021/11/14 02:40:37;;;;;;;32.30;25.67;;;8.00;99.90;;;;;;5035190;28;20437;-66
2021/11/14 02:43:03;;;;;;;28.70;25.60;;;8.00;99.90;;;;;;5034984;28;20524;-67
2021/11/14 02:45:29;;;;;;;28.70;25.60;;;8.00;99.90;;;;;;5029445;28;20651;-66
2021/11/14 02:47:56;;;;;;;29.70;24.57;;;8.00;99.90;;;;;;5034320;28;20483;-67
2021/11/14 02:50:23;;;;;;;28.57;24.00;;;8.10;99.90;;;;;;5043773;28;20538;-66
2021/11/14 02:52:50;;;;;;;29.97;26.73;;;8.10;99.90;;;;;;5037696;28;20463;-66
2021/11/14 02:55:19;;;;;;;29.10;25.00;;;8.20;99.90;;;;;;5050842;28;20467;-68
2021/11/14 02:57:44;;;;;;;26.50;22.87;;;8.20;99.90;;;;;;5029796;28;20480;-66
2021/11/14 03:00:15;;;;;;;25.03;22.43;;;8.20;99.90;;;;;;5025991;28;20483;-68
2021/11/14 03:02:41;;;;;;;25.87;21.73;;;8.30;99.90;;;;;;5036802;28;20174;-69
2021/11/14 03:05:14;;;;;;;28.20;23.67;;;8.30;99.90;;;;;;5049173;28;20428;-67
2021/11/14 03:07:40;;;;;;;25.00;22.40;;;8.30;99.90;;;;;;5038224;28;20193;-66
2021/11/14 03:10:08;;;;;;;26.40;23.63;;;8.20;99.90;;;;;;5038300;28;20432;-66
2021/11/14 03:12:34;;;;;;;26.40;23.67;;;8.20;99.90;;;;;;5035774;28;20437;-66
2021/11/14 03:15:00;;;;;;;24.77;22.17;;;8.20;99.90;;;;;;5046488;28;20431;-66
2021/11/14 03:17:26;;;;;;;26.83;23.40;;;8.30;99.90;;;;;;5039929;28;20189;-68
2021/11/14 03:19:52;;;;;;;24.90;22.30;;;8.30;99.90;;;;;;5038646;28;20284;-67
2021/11/14 03:22:18;;;;;;;27.33;24.30;;;8.40;99.90;;;;;;5036492;28;20445;-67
2021/11/14 03:24:44;;;;;;;23.90;21.60;;;8.50;99.90;;;;;;5037076;28;20429;-65
2021/11/14 03:27:09;;;;;;;25.70;22.23;;;8.50;99.90;;;;;;5033567;28;20659;-67
2021/11/14 03:29:35;;;;;;;26.50;22.87;;;8.50;99.90;;;;;;5039085;28;20201;-66
2021/11/14 03:32:01;;;;;;;29.43;23.07;;;8.50;99.90;;;;;;5039010;28;20201;-68
2021/11/14 03:34:28;;;;;;;27.13;23.60;;;8.40;99.90;;;;;;5035114;28;20228;-65
2021/11/14 03:36:53;;;;;;;26.37;23.47;;;8.40;99.90;;;;;;5039629;28;20441;-67
2021/11/14 03:39:19;;;;;;;23.60;21.13;;;8.40;99.90;;;;;;5043113;28;20952;-66
2021/11/14 03:41:44;;;;;;;25.37;22.70;;;8.50;99.90;;;;;;5034738;28;20201;-67
2021/11/14 03:44:12;;;;;;;25.30;22.57;;;8.60;99.90;;;;;;5036003;28;20173;-66
2021/11/14 03:46:39;;;;;;;24.93;22.07;;;8.60;99.90;;;;;;5042728;28;20198;-66
2021/11/14 03:49:05;;;;;;;24.13;21.47;;;8.70;99.90;;;;;;5037374;28;20468;-67
2021/11/14 03:51:31;;;;;;;24.83;22.20;;;8.60;99.90;;;;;;5030933;28;20476;-66
2021/11/14 03:53:58;;;;;;;25.30;22.47;;;8.60;99.90;;;;;;5030430;28;20436;-66
2021/11/14 03:56:24;;;;;;;25.83;23.13;;;8.50;99.90;;;;;;5032349;28;20428;-67
2021/11/14 03:58:50;;;;;;;26.07;22.47;;;8.50;99.90;;;;;;5032683;28;20462;-65
2021/11/14 04:01:22;;;;;;;25.67;22.50;;;8.50;99.90;;;;;;5024398;28;21006;-67
2021/11/14 04:03:50;;;;;;;29.43;25.03;;;8.40;99.90;;;;;;5020161;28;20166;-66
2021/11/14 04:06:16;;;;;;;26.77;23.00;;;8.30;99.90;;;;;;5013861;28;20970;-66
2021/11/14 04:08:42;;;;;;;30.17;25.00;;;8.30;99.90;;;;;;5018612;28;20457;-67
2021/11/14 04:11:08;;;;;;;28.90;23.83;;;8.10;99.90;;;;;;5024943;28;20453;-66
2021/11/14 04:13:34;;;;;;;26.70;22.73;;;8.10;99.90;;;;;;5035377;28;20197;-66
2021/11/14 04:16:03;;;;;;;24.40;21.80;;;8.20;99.90;;;;;;5034676;28;20188;-66
2021/11/14 04:18:29;;;;;;;30.60;23.07;;;8.30;99.90;;;;;;5043320;28;20848;-66
2021/11/14 04:20:55;;;;;;;29.80;21.80;;;8.30;99.90;;;;;;5039378;28;20458;-66
2021/11/14 04:23:22;;;;;;;29.90;25.70;;;8.20;99.90;;;;;;5041996;28;20190;-65
2021/11/14 04:25:49;;;;;;;27.77;23.07;;;8.10;99.90;;;;;;5039778;28;20173;-68
2021/11/14 04:28:16;;;;;;;31.80;25.07;;;8.10;99.90;;;;;;5036568;28;20453;-66
2021/11/14 04:30:43;;;;;;;31.60;26.33;;;8.00;99.90;;;;;;5040915;28;20449;-66
2021/11/14 04:33:10;;;;;;;28.60;24.07;;;8.00;99.90;;;;;;5044316;28;20482;-66
2021/11/14 04:35:36;;;;;;;30.77;27.57;;;8.00;99.90;;;;;;5045073;28;20431;-66
2021/11/14 04:38:05;;;;;;;32.10;25.70;;;8.10;99.90;;;;;;5037295;28;20450;-66
2021/11/14 04:40:37;;;;;;;30.33;23.73;;;8.10;99.90;;;;;;5044507;28;20208;-68
2021/11/14 04:43:06;;;;;;;28.33;22.10;;;8.10;99.90;;;;;;5050464;28;20942;-69
2021/11/14 04:45:32;;;;;;;32.97;23.47;;;8.00;99.90;;;;;;5051744;28;20435;-67
2021/11/14 04:47:57;;;;;;;26.93;23.03;;;8.00;99.90;;;;;;5046496;28;20478;-67
2021/11/14 04:50:23;;;;;;;26.37;23.40;;;8.00;99.90;;;;;;5030355;28;20477;-68
2021/11/14 04:52:51;;;;;;;30.33;22.77;;;7.90;99.90;;;;;;5045904;28;20170;-66
2021/11/14 04:55:17;;;;;;;29.27;24.33;;;7.90;99.90;;;;;;5037099;28;20425;-67
2021/11/14 04:57:49;;;;;;;29.37;23.80;;;7.80;99.90;;;;;;5039982;28;20510;-67
2021/11/14 05:00:15;;;;;;;30.47;25.57;;;7.80;99.90;;;;;;5037783;28;20170;-68
2021/11/14 05:02:41;;;;;;;37.97;25.27;;;7.80;99.90;;;;;;5040282;28;20433;-68
2021/11/14 05:05:07;;;;;;;34.07;24.73;;;7.90;99.90;;;;;;5038701;28;20213;-68
2021/11/14 05:07:33;;;;;;;30.07;23.50;;;8.00;99.90;;;;;;5044259;28;20193;-68
2021/11/14 05:09:59;;;;;;;30.43;24.20;;;8.10;99.90;;;;;;5044025;28;20433;-68
2021/11/14 05:12:24;;;;;;;29.23;23.43;;;8.10;99.90;;;;;;5036205;28;20202;-68
2021/11/14 05:14:50;;;;;;;28.80;23.40;;;8.10;99.90;;;;;;5044305;28;20170;-67
2021/11/14 05:17:15;;;;;;;29.07;22.73;;;8.20;99.90;;;;;;5036281;28;20177;-68
2021/11/14 05:19:41;;;;;;;27.10;20.80;;;8.20;99.90;;;;;;5044995;28;20176;-68
2021/11/14 05:22:07;;;;;;;32.33;21.90;;;8.30;99.90;;;;;;5039249;28;20647;-68
2021/11/14 05:24:32;;;;;;;23.13;20.30;;;8.30;99.90;;;;;;5039445;28;20265;-68
2021/11/14 05:26:58;;;;;;;29.20;22.00;;;8.30;99.90;;;;;;5030043;28;20198;-68
2021/11/14 05:29:24;;;;;;;25.43;21.87;;;8.40;99.90;;;;;;5039081;28;20597;-67
2021/11/14 05:31:50;;;;;;;29.60;22.23;;;8.40;99.90;;;;;;5041546;28;20497;-67
2021/11/14 05:34:16;;;;;;;26.87;22.37;;;8.50;99.90;;;;;;5041098;28;20792;-67
2021/11/14 05:36:41;;;;;;;21.30;19.00;;;8.50;99.90;;;;;;5021441;28;20175;-68
2021/11/14 05:39:07;;;;;;;25.07;21.30;;;8.50;99.90;;;;;;5030172;28;20221;-68
2021/11/14 05:41:32;;;;;;;25.27;21.23;;;8.60;99.90;;;;;;5035803;28;20199;-68
2021/11/14 05:43:58;;;;;;;25.83;21.63;;;8.60;99.90;;;;;;5037158;28;20182;-68
2021/11/14 05:46:23;;;;;;;26.43;21.83;;;8.60;99.90;;;;;;5043659;28;20227;-68
2021/11/14 05:48:49;;;;;;;26.50;22.10;;;8.50;99.90;;;;;;5034414;28;20217;-67
2021/11/14 05:51:14;;;;;;;27.57;21.30;;;8.60;99.90;;;;;;5039256;28;20241;-68
2021/11/14 05:53:40;;;;;;;26.70;21.50;;;8.50;99.90;;;;;;5039443;28;20174;-68
2021/11/14 05:56:06;;;;;;;24.23;21.03;;;8.40;99.90;;;;;;5041964;28;20178;-67
2021/11/14 05:58:58;;;;;;;24.73;20.80;;;8.50;99.90;;;;;;5036545;28;20691;-68
2021/11/14 06:01:35;;;;;;;27.70;21.13;;;8.60;99.90;;;;;;5030086;28;20174;-67
2021/11/14 06:06:26;;;;;;;27.00;20.23;;;8.60;99.90;;;;;;5036231;28;20842;-67
2021/11/14 06:08:52;;;;;;;26.20;20.97;;;8.60;99.90;;;;;;5043130;28;20200;-68
2021/11/14 06:11:18;;;;;;;30.40;20.33;;;8.60;99.90;;;;;;5040969;28;20202;-68
2021/11/14 06:13:44;;;;;;;25.67;20.53;;;8.60;99.90;;;;;;5050176;28;20177;-67
2021/11/14 06:16:10;;;;;;;23.50;19.00;;;8.60;99.90;;;;;;5019744;28;20174;-68
2021/11/14 06:18:36;;;;;;;21.07;18.57;;;8.60;99.90;;;;;;5040732;28;20451;-68
2021/11/14 06:21:02;;;;;;;25.53;19.87;;;8.60;99.90;;;;;;5042947;28;20229;-68
2021/11/14 06:23:28;;;;;;;24.60;20.53;;;8.50;99.90;;;;;;5045425;28;20544;-68
2021/11/14 06:25:53;;;;;;;26.73;21.10;;;8.60;99.90;;;;;;5042760;28;20694;-68
2021/11/14 06:28:19;;;;;;;22.50;19.33;;;8.70;99.90;;;;;;5041568;28;20481;-68
2021/11/14 06:30:45;;;;;;;24.40;21.60;;;8.60;99.90;;;;;;5035245;28;20236;-67
2021/11/14 06:33:10;;;;;;;23.77;21.00;;;8.70;99.90;;;;;;5045295;28;20178;-68
2021/11/14 06:35:36;;;;;;;25.63;21.83;;;8.60;99.90;;;;;;5041966;28;20485;-68
2021/11/14 06:38:03;;;;;;;26.00;20.77;;;8.60;99.90;;;;;;5042771;28;20280;-68
2021/11/14 06:40:29;;;;;;;31.53;23.50;;;8.50;99.90;;;;;;5036169;28;20262;-68
2021/11/14 06:42:54;;;;;;;32.47;24.27;;;8.30;99.90;;;;;;5034556;28;21065;-69
2021/11/14 06:45:20;;;;;;;28.47;22.67;;;8.20;99.90;;;;;;5034592;28;20180;-68
2021/11/14 06:47:45;;;;;;;27.30;22.60;;;8.20;99.90;;;;;;5042689;28;20209;-68
2021/11/14 06:50:13;;;;;;;26.17;21.03;;;8.10;99.90;;;;;;5036624;28;20173;-68
2021/11/14 06:52:40;;;;;;;22.90;20.30;;;8.20;99.90;;;;;;5038704;28;20303;-67
2021/11/14 06:55:06;;;;;;;29.60;21.43;;;8.30;99.90;;;;;;5044568;28;20438;-69
2021/11/14 06:57:32;;;;;;;26.93;19.63;;;8.50;99.90;;;;;;5036295;28;20447;-68
2021/11/14 06:59:57;;;;;;;25.60;21.13;;;8.40;99.90;;;;;;5034905;28;20922;-68
2021/11/14 07:02:23;;;;;;;25.10;19.87;;;8.50;99.90;;;;;;5044294;28;20265;-69
2021/11/14 07:04:49;;;;;;;25.07;20.70;;;8.60;99.90;;;;;;5034901;28;20193;-68
2021/11/14 07:07:14;;;;;;;25.80;21.87;;;8.70;99.90;;;;;;5046767;28;20182;-68
2021/11/14 07:09:40;;;;;;;21.70;19.40;;;8.80;99.90;;;;;;5045863;28;20216;-66
2021/11/14 07:12:06;;;;;;;24.17;21.27;;;8.90;99.90;;;;;;5041690;28;20203;-69
2021/11/14 07:14:32;;;;;;;34.17;28.10;;;8.90;99.90;;;;;;5034974;28;20167;-68
2021/11/14 07:16:57;;;;;;;32.40;26.47;;;8.80;99.90;;;;;;5024167;28;20513;-69
2021/11/14 07:19:23;;;;;;;28.07;24.23;;;8.80;99.90;;;;;;5038639;28;20197;-68
2021/11/14 07:21:49;;;;;;;28.50;23.00;;;8.90;99.90;;;;;;5034998;28;20173;-67
2021/11/14 07:24:15;;;;;;;35.87;24.87;;;9.00;99.90;;;;;;5028897;28;20189;-69
2021/11/14 07:26:41;;;;;;;36.80;26.57;;;9.30;99.90;;;;;;5036862;28;20539;-68
2021/11/14 07:29:07;;;;;;;31.07;23.70;;;9.60;99.90;;;;;;5037793;28;20751;-68
2021/11/14 07:31:33;;;;;;;31.10;23.67;;;9.80;99.90;;;;;;5035251;28;20548;-68
2021/11/14 07:33:59;;;;;;;28.43;22.00;;;9.90;99.90;;;;;;5043665;28;20181;-69
2021/11/14 07:36:25;;;;;;;29.63;22.93;;;10.00;99.90;;;;;;5042828;28;20428;-68
2021/11/14 07:38:51;;;;;;;28.53;23.23;;;9.90;99.90;;;;;;5042744;28;20216;-68
2021/11/14 07:41:16;;;;;;;25.17;21.00;;;9.80;99.90;;;;;;5034005;28;20261;-69
2021/11/14 07:43:42;;;;;;;24.07;20.67;;;9.90;99.90;;;;;;5038104;28;20212;-68
2021/11/14 07:46:09;;;;;;;24.00;20.37;;;10.00;99.90;;;;;;5046234;28;20181;-68
2021/11/14 07:48:35;;;;;;;26.93;20.43;;;10.10;99.90;;;;;;5045342;28;20220;-69
2021/11/14 07:51:01;;;;;;;24.00;20.50;;;10.00;99.90;;;;;;5040750;28;20954;-68
2021/11/14 07:53:27;;;;;;;28.77;24.50;;;10.10;99.90;;;;;;5032328;28;20181;-68
2021/11/14 07:55:53;;;;;;;27.13;22.10;;;10.20;99.90;;;;;;5032478;28;20424;-68
2021/11/14 07:58:19;;;;;;;26.43;22.57;;;10.20;99.90;;;;;;5032645;28;20453;-68
2021/11/14 08:00:45;;;;;;;30.27;23.47;;;10.30;99.90;;;;;;5033772;28;20464;-68
2021/11/14 08:03:11;;;;;;;25.90;22.57;;;10.20;99.90;;;;;;5035203;28;20184;-68
2021/11/14 08:05:38;;;;;;;27.47;23.97;;;10.10;99.90;;;;;;5031474;28;20185;-68
2021/11/14 08:08:04;;;;;;;27.50;22.70;;;10.00;99.90;;;;;;5033570;28;20189;-69
2021/11/14 08:10:31;;;;;;;28.83;21.93;;;10.10;99.90;;;;;;5040281;28;20808;-69
2021/11/14 08:12:57;;;;;;;28.77;21.73;;;9.90;99.90;;;;;;5043257;28;20444;-69
2021/11/14 08:15:23;;;;;;;29.37;23.20;;;9.70;99.90;;;;;;5037924;28;20790;-68
2021/11/14 08:17:49;;;;;;;29.67;23.20;;;9.50;99.90;;;;;;5031636;28;20453;-68
2021/11/14 08:20:16;;;;;;;30.83;23.07;;;9.40;99.90;;;;;;5041766;28;20249;-68
2021/11/14 08:22:42;;;;;;;30.60;24.17;;;9.40;99.90;;;;;;5039711;28;20463;-67
2021/11/14 08:25:08;;;;;;;27.40;22.00;;;9.30;99.90;;;;;;5033436;28;20865;-67
2021/11/14 08:27:36;;;;;;;24.73;21.80;;;9.50;99.90;;;;;;5029810;28;20481;-68
2021/11/14 08:30:04;;;;;;;27.93;22.53;;;9.50;99.90;;;;;;5035414;28;20486;-68
2021/11/14 08:32:30;;;;;;;28.27;22.73;;;9.60;99.90;;;;;;5034288;28;20460;-68
2021/11/14 08:34:56;;;;;;;26.67;20.60;;;9.60;99.90;;;;;;5032552;28;20455;-67
2021/11/14 08:37:21;;;;;;;29.47;21.93;;;9.70;99.90;;;;;;5037634;28;20651;-68
2021/11/14 08:39:48;;;;;;;26.27;22.10;;;9.80;99.90;;;;;;5030886;28;20230;-68
2021/11/14 08:42:14;;;;;;;26.60;21.53;;;9.90;99.90;;;;;;5037680;28;20647;-66
2021/11/14 08:44:39;;;;;;;23.50;19.07;;;10.00;99.90;;;;;;5047934;28;20438;-68
2021/11/14 08:47:05;;;;;;;23.43;20.90;;;10.20;99.90;;;;;;5031685;28;20197;-68
2021/11/14 08:49:31;;;;;;;21.97;19.57;;;10.20;99.90;;;;;;5040164;28;20645;-67
2021/11/14 08:51:57;;;;;;;21.60;19.33;;;10.30;99.90;;;;;;5030649;28;20668;-67
2021/11/14 08:54:23;;;;;;;22.10;19.80;;;10.40;99.90;;;;;;5035726;28;20439;-68
2021/11/14 08:56:49;;;;;;;28.03;21.20;;;10.50;99.90;;;;;;5031988;28;20173;-68
2021/11/14 08:59:15;;;;;;;23.90;21.30;;;10.60;99.90;;;;;;5033004;28;20453;-67
2021/11/14 09:01:40;;;;;;;23.10;20.33;;;10.60;99.90;;;;;;5038087;28;20468;-68
2021/11/14 09:04:07;;;;;;;22.80;19.30;;;10.80;99.90;;;;;;5038371;28;20210;-67
2021/11/14 09:06:37;;;;;;;23.50;19.60;;;10.90;99.90;;;;;;5045238;28;20193;-68
2021/11/14 09:09:05;;;;;;;19.90;17.80;;;11.00;99.90;;;;;;5039746;28;20513;-67
2021/11/14 09:11:30;;;;;;;21.57;18.10;;;11.00;99.90;;;;;;5034964;28;20864;-67
2021/11/14 09:13:56;;;;;;;22.77;19.30;;;10.90;99.90;;;;;;5041430;28;20437;-68
2021/11/14 09:16:27;;;;;;;21.40;19.13;;;10.90;99.90;;;;;;5038716;28;20202;-68
2021/11/14 09:18:53;;;;;;;21.00;18.80;;;10.80;99.90;;;;;;5048185;28;20189;-68
2021/11/14 09:21:19;;;;;;;20.77;18.60;;;10.70;99.90;;;;;;5039580;28;20471;-68
2021/11/14 09:23:44;;;;;;;21.87;19.53;;;10.60;99.90;;;;;;5053427;28;20467;-66
2021/11/14 09:26:10;;;;;;;25.30;19.60;;;10.60;99.90;;;;;;5043041;28;20719;-68
2021/11/14 09:28:36;;;;;;;23.33;20.83;;;10.50;99.90;;;;;;5038562;28;20540;-67
2021/11/14 09:31:02;;;;;;;24.60;18.37;;;10.40;99.90;;;;;;5039206;28;20459;-69
2021/11/14 09:33:28;;;;;;;24.30;20.73;;;10.50;99.90;;;;;;5045296;28;20177;-68
2021/11/14 09:35:54;;;;;;;23.53;19.30;;;10.50;99.90;;;;;;5037652;28;20440;-68
2021/11/14 09:38:20;;;;;;;20.70;17.83;;;10.40;99.90;;;;;;5011926;28;20309;-68
2021/11/14 09:40:46;;;;;;;19.80;17.80;;;10.40;99.90;;;;;;5014429;28;20476;-69
2021/11/14 09:43:13;;;;;;;19.70;17.60;;;10.50;99.90;;;;;;5026849;28;20178;-68
2021/11/14 09:45:38;;;;;;;19.93;17.87;;;10.60;99.90;;;;;;5015372;28;20438;-68
2021/11/14 09:48:06;;;;;;;20.87;18.43;;;10.60;99.90;;;;;;5030276;28;20472;-69
2021/11/14 09:50:33;;;;;;;26.73;20.33;;;10.50;99.90;;;;;;5020938;28;20201;-68
2021/11/14 09:52:59;;;;;;;20.67;18.33;;;10.50;99.90;;;;;;5024441;28;20863;-67
2021/11/14 09:55:30;;;;;;;19.10;17.10;;;10.40;99.90;;;;;;5028017;28;20433;-67
2021/11/14 09:57:56;;;;;;;22.47;20.00;;;10.50;99.90;;;;;;5017475;28;20500;-68
2021/11/14 10:00:26;;;;;;;21.20;17.53;;;10.50;99.90;;;;;;5028836;28;20457;-68
2021/11/14 10:02:52;;;;;;;21.53;19.33;;;10.50;99.90;;;;;;5011383;28;20708;-67
2021/11/14 10:05:17;;;;;;;20.20;18.10;;;10.40;99.90;;;;;;5013113;28;20433;-68
2021/11/14 10:08:03;;;;;;;23.47;19.87;;;10.40;99.90;;;;;;5017583;28;20210;-68
2021/11/14 10:10:32;;;;;;;19.03;17.00;;;10.50;99.90;;;;;;5006629;28;20163;-68
2021/11/14 10:12:58;;;;;;;20.30;17.17;;;10.70;99.90;;;;;;5015553;28;20429;-67
2021/11/14 10:15:25;;;;;;;22.00;19.30;;;10.60;99.90;;;;;;5013751;28;20448;-68
2021/11/14 10:17:56;;;;;;;21.27;18.90;;;10.50;99.90;;;;;;5026358;28;20460;-67
2021/11/14 10:20:23;;;;;;;20.30;17.80;;;10.50;99.90;;;;;;5019098;28;20429;-68
2021/11/14 10:22:57;;;;;;;22.77;19.03;;;10.60;99.90;;;;;;5010016;28;20839;-67
2021/11/14 10:25:23;;;;;;;19.87;17.83;;;10.60;99.90;;;;;;5020306;28;20428;-69
2021/11/14 10:27:52;;;;;;;21.60;18.70;;;10.70;99.90;;;;;;5015454;28;20474;-67
2021/11/14 10:30:24;;;;;;;21.60;19.37;;;10.80;99.90;;;;;;5019689;28;20429;-68
2021/11/14 10:32:51;;;;;;;20.97;18.77;;;10.80;99.90;;;;;;5018094;28;20488;-68
2021/11/14 10:35:17;;;;;;;20.83;18.43;;;10.80;99.90;;;;;;5015050;28;20995;-69
2021/11/14 10:37:43;;;;;;;21.67;19.33;;;10.70;99.90;;;;;;5018968;28;20442;-68
2021/11/14 10:40:18;;;;;;;21.57;19.27;;;10.70;99.90;;;;;;5015142;28;20675;-68
2021/11/14 10:42:48;;;;;;;19.90;17.80;;;10.90;99.90;;;;;;5011206;28;20441;-68
2021/11/14 10:45:15;;;;;;;22.73;18.33;;;10.90;99.90;;;;;;5001941;28;20424;-68
2021/11/14 10:47:40;;;;;;;20.30;18.10;;;10.80;99.90;;;;;;5013523;28;20829;-68
2021/11/14 10:50:10;;;;;;;21.70;18.57;;;10.80;99.90;;;;;;5019394;28;20445;-68
2021/11/14 10:52:36;;;;;;;21.40;18.93;;;10.90;99.90;;;;;;5018978;28;20210;-67
2021/11/14 10:55:06;;;;;;;24.73;19.13;;;10.80;99.90;;;;;;5013449;28;20437;-67
2021/11/14 10:57:34;;;;;;;23.40;20.13;;;10.80;99.90;;;;;;5019638;28;20285;-67
2021/11/14 11:00:00;;;;;;;21.80;19.53;;;10.80;99.90;;;;;;5020702;28;20426;-68
2021/11/14 11:02:27;;;;;;;20.83;18.67;;;10.80;99.90;;;;;;5018839;28;20436;-66
2021/11/14 11:04:54;;;;;;;25.77;20.90;;;10.80;99.90;;;;;;5015840;28;20500;-68
2021/11/14 11:07:21;;;;;;;22.40;19.57;;;10.80;99.90;;;;;;5015293;28;20537;-68
2021/11/14 11:09:53;;;;;;;23.43;19.63;;;10.80;99.90;;;;;;5012182;28;20445;-68
2021/11/14 11:12:21;;;;;;;24.20;20.23;;;10.80;99.90;;;;;;5019261;28;20523;-68
2021/11/14 11:15:01;;;;;;;22.90;20.50;;;10.80;99.90;;;;;;5020892;28;20854;-68
2021/11/14 11:17:28;;;;;;;23.27;18.93;;;10.70;99.90;;;;;;5016167;28;20425;-69
2021/11/14 11:19:56;;;;;;;20.97;17.67;;;10.70;99.90;;;;;;5025321;28;20484;-68
2021/11/14 11:22:25;;;;;;;28.50;20.53;;;10.60;99.90;;;;;;5019615;28;20472;-68
2021/11/14 11:24:54;;;;;;;25.57;19.80;;;10.70;99.90;;;;;;5021996;28;20482;-69
2021/11/14 11:27:20;;;;;;;23.33;18.90;;;10.60;99.90;;;;;;5019403;28;20517;-66
2021/11/14 11:29:46;;;;;;;25.93;20.07;;;10.60;99.90;;;;;;5013248;28;20500;-68
2021/11/14 11:32:13;;;;;;;21.93;19.30;;;10.80;99.90;;;;;;5025512;28;20466;-69
2021/11/14 11:34:41;;;;;;;21.90;19.17;;;10.90;99.90;;;;;;5017430;28;20714;-68
2021/11/14 11:37:07;;;;;;;24.33;19.80;;;10.80;99.90;;;;;;5014475;28;20511;-67
2021/11/14 11:39:33;;;;;;;23.40;19.23;;;10.80;99.90;;;;;;5018430;28;20557;-69
2021/11/14 11:42:00;;;;;;;24.40;20.33;;;10.90;99.90;;;;;;5023223;28;20183;-69
2021/11/14 11:44:26;;;;;;;22.20;18.60;;;11.10;99.90;;;;;;5026771;28;20171;-71
2021/11/14 11:46:54;;;;;;;23.40;17.97;;;11.20;99.90;;;;;;5021429;28;20429;-69
2021/11/14 11:49:23;;;;;;;22.20;17.23;;;11.30;99.90;;;;;;5016716;28;20493;-67
2021/11/14 11:51:57;;;;;;;22.07;17.47;;;11.20;99.90;;;;;;5008627;28;20471;-67
2021/11/14 11:54:25;;;;;;;21.20;18.13;;;11.10;99.90;;;;;;5005941;28;20434;-66
2021/11/14 11:56:57;;;;;;;23.40;18.87;;;11.00;99.90;;;;;;5001806;28;20952;-67
2021/11/14 11:59:48;;;;;;;23.53;17.70;;;10.80;99.90;;;;;;5007232;28;20454;-68
2021/11/14 12:02:22;;;;;;;23.87;19.10;;;10.80;99.90;;;;;;4998145;28;20943;-67
2021/11/14 12:04:50;;;;;;;22.50;17.37;;;10.60;99.90;;;;;;5008014;28;20432;-67
2021/11/14 12:07:22;;;;;;;25.50;18.20;;;10.70;99.90;;;;;;5015527;28;20442;-67
2021/11/14 12:09:55;;;;;;;22.63;17.40;;;10.90;99.90;;;;;;5016052;28;20965;-68
2021/11/14 12:12:28;;;;;;;18.57;15.93;;;10.80;99.90;;;;;;5012738;28;20522;-68
2021/11/14 12:15:10;;;;;;;21.47;16.87;;;10.90;99.90;;;;;;5005618;28;20891;-68
2021/11/14 12:17:37;;;;;;;20.87;17.10;;;11.00;99.90;;;;;;5011797;28;21021;-67
2021/11/14 12:20:13;;;;;;;23.20;17.93;;;11.10;99.90;;;;;;5000375;28;20433;-67
2021/11/14 12:22:47;;;;;;;23.10;17.13;;;11.30;99.90;;;;;;5005279;28;20496;-68
2021/11/14 12:25:26;;;;;;;22.40;17.27;;;11.40;99.90;;;;;;5013362;28;20420;-68
2021/11/14 12:28:20;;;;;;;22.00;18.00;;;11.80;99.90;;;;;;5018437;28;20440;-66
2021/11/14 12:33:28;;;;;;;16.37;14.50;;;16.00;99.90;;;;;;5023631;28;20566;-68
2021/11/14 12:35:58;;;;;;;16.53;14.93;;;17.90;99.90;;;;;;5023688;28;20436;-67
2021/11/14 12:38:30;;;;;;;19.70;16.87;;;17.60;99.90;;;;;;4999118;28;21050;-67